sensor_id;sensor_type;location;lat;lon;timestamp;temperature;humidity
47252;DHT22;32991;51.374;11.586;2022-11-20T00:00:37;-4.40;99.90
47252;DHT22;32991;51.374;11.586;2022-11-20T00:03:04;-4.40;99.90
47252;DHT22;32991;51.374;11.586;2022-11-20T00:05:32;-4.50;99.90
47252;DHT22;32991;51.374;11.586;2022-11-20T00:07:58;-4.50;99.90
47252;DHT22;32991;51.374;11.586;2022-11-20T00:10:25;-4.50;99.90
47252;DHT22;32991;51.374;11.586;2022-11-20T00:12:52;-4.50;99.90
47252;DHT22;32991;51.374;11.586;2022-11-20T00:15:18;-4.60;99.90
47252;DHT22;32991;51.374;11.586;2022-11-20T00:17:45;-4.70;99.90
47252;DHT22;32991;51.374;11.586;2022-11-20T00:20:12;-4.80;99.90
47252;DHT22;32991;51.374;11.586;2022-11-20T00:22:39;-4.80;99.90
47252;DHT22;32991;51.374;11.586;2022-11-20T00:25:06;-4.90;99.90
47252;DHT22;32991;51.374;11.586;2022-11-20T00:27:33;-4.90;99.90
47252;DHT22;32991;51.374;11.586;2022-11-20T00:29:59;-5.00;99.90
47252;DHT22;32991;51.374;11.586;2022-11-20T00:32:26;-5.00;99.90
47252;DHT22;32991;51.374;11.586;2022-11-20T00:34:53;-5.00;99.90
47252;DHT22;32991;51.374;11.586;2022-11-20T00:37:19;-5.10;99.90
47252;DHT22;32991;51.374;11.586;2022-11-20T00:39:46;-5.10;99.90
47252;DHT22;32991;51.374;11.586;2022-11-20T00:42:13;-5.10;99.90
47252;DHT22;32991;51.374;11.586;2022-11-20T00:44:40;-5.10;99.90
47252;DHT22;32991;51.374;11.586;2022-11-20T00:47:07;-5.10;99.90
47252;DHT22;32991;51.374;11.586;2022-11-20T00:49:34;-5.20;99.90
47252;DHT22;32991;51.374;11.586;2022-11-20T00:52:00;-5.20;99.90
47252;DHT22;32991;51.374;11.586;2022-11-20T00:54:27;-5.20;99.90
47252;DHT22;32991;51.374;11.586;2022-11-20T00:56:54;-5.20;99.90
47252;DHT22;32991;51.374;11.586;2022-11-20T00:59:21;-5.20;99.90
47252;DHT22;32991;51.374;11.586;2022-11-20T01:01:48;-5.30;99.90
47252;DHT22;32991;51.374;11.586;2022-11-20T01:04:14;-5.30;99.90
47252;DHT22;32991;51.374;11.586;2022-11-20T01:06:41;-5.30;99.90
47252;DHT22;32991;51.374;11.586;2022-11-20T01:09:12;-5.30;99.90
47252;DHT22;32991;51.374;11.586;2022-11-20T01:11:40;-5.40;99.90
47252;DHT22;32991;51.374;11.586;2022-11-20T01:14:09;-5.40;99.90
47252;DHT22;32991;51.374;11.586;2022-11-20T01:16:37;-5.40;99.90
47252;DHT22;32991;51.374;11.586;2022-11-20T01:19:05;-5.40;99.90
47252;DHT22;32991;51.374;11.586;2022-11-20T01:21:36;-5.40;99.90
47252;DHT22;32991;51.374;11.586;2022-11-20T01:24:05;-5.40;99.90
47252;DHT22;32991;51.374;11.586;2022-11-20T01:26:34;-5.40;99.90
47252;DHT22;32991;51.374;11.586;2022-11-20T01:29:01;-5.40;99.90
47252;DHT22;32991;51.374;11.586;2022-11-20T01:31:29;-5.40;99.90
47252;DHT22;32991;51.374;11.586;2022-11-20T01:33:58;-5.40;99.90
47252;DHT22;32991;51.374;11.586;2022-11-20T01:36:27;-5.40;99.90
47252;DHT22;32991;51.374;11.586;2022-11-20T01:38:55;-5.40;99.90
47252;DHT22;32991;51.374;11.586;2022-11-20T01:41:22;-5.40;99.90
47252;DHT22;32991;51.374;11.586;2022-11-20T01:44:08;-5.40;99.90
47252;DHT22;32991;51.374;11.586;2022-11-20T01:46:36;-5.40;99.90
47252;DHT22;32991;51.374;11.586;2022-11-20T01:49:04;-5.40;99.90
47252;DHT22;32991;51.374;11.586;2022-11-20T01:51:33;-5.50;99.90
47252;DHT22;32991;51.374;11.586;2022-11-20T01:54:02;-5.50;99.90
47252;DHT22;32991;51.374;11.586;2022-11-20T01:56:31;-5.50;99.90
47252;DHT22;32991;51.374;11.586;2022-11-20T01:59:01;-5.50;99.90
47252;DHT22;32991;51.374;11.586;2022-11-20T02:01:28;-5.50;99.90
47252;DHT22;32991;51.374;11.586;2022-11-20T02:03:55;-5.40;99.90
47252;DHT22;32991;51.374;11.586;2022-11-20T02:06:26;-5.40;99.90
47252;DHT22;32991;51.374;11.586;2022-11-20T02:08:54;-5.40;99.90
47252;DHT22;32991;51.374;11.586;2022-11-20T02:11:21;-5.40;99.90
47252;DHT22;32991;51.374;11.586;2022-11-20T02:13:47;-5.40;99.90
47252;DHT22;32991;51.374;11.586;2022-11-20T02:16:16;-5.30;99.90
47252;DHT22;32991;51.374;11.586;2022-11-20T02:18:43;-5.30;99.90
47252;DHT22;32991;51.374;11.586;2022-11-20T02:26:22;-5.20;99.90
47252;DHT22;32991;51.374;11.586;2022-11-20T02:28:50;-5.20;99.90
47252;DHT22;32991;51.374;11.586;2022-11-20T02:31:17;-5.20;99.90
47252;DHT22;32991;51.374;11.586;2022-11-20T02:33:43;-5.20;99.90
47252;DHT22;32991;51.374;11.586;2022-11-20T02:36:11;-5.20;99.90
47252;DHT22;32991;51.374;11.586;2022-11-20T02:38:39;-5.20;99.90
47252;DHT22;32991;51.374;11.586;2022-11-20T02:41:05;-5.20;99.90
47252;DHT22;32991;51.374;11.586;2022-11-20T02:43:32;-5.20;99.90
47252;DHT22;32991;51.374;11.586;2022-11-20T02:45:59;-5.20;99.90
47252;DHT22;32991;51.374;11.586;2022-11-20T02:48:26;-5.20;99.90
47252;DHT22;32991;51.374;11.586;2022-11-20T02:50:58;-5.10;99.90
47252;DHT22;32991;51.374;11.586;2022-11-20T02:53:24;-5.10;99.90
47252;DHT22;32991;51.374;11.586;2022-11-20T02:55:51;-5.10;99.90
47252;DHT22;32991;51.374;11.586;2022-11-20T02:58:18;-5.10;99.90
47252;DHT22;32991;51.374;11.586;2022-11-20T03:00:45;-5.10;99.90
47252;DHT22;32991;51.374;11.586;2022-11-20T03:03:11;-5.10;99.90
47252;DHT22;32991;51.374;11.586;2022-11-20T03:05:38;-5.10;99.90
47252;DHT22;32991;51.374;11.586;2022-11-20T03:08:05;-5.10;99.90
47252;DHT22;32991;51.374;11.586;2022-11-20T03:10:31;-5.10;99.90
47252;DHT22;32991;51.374;11.586;2022-11-20T03:12:58;-5.10;99.90
47252;DHT22;32991;51.374;11.586;2022-11-20T03:15:25;-5.20;99.90
47252;DHT22;32991;51.374;11.586;2022-11-20T03:17:55;-5.30;99.90
47252;DHT22;32991;51.374;11.586;2022-11-20T03:20:22;-5.40;99.90
47252;DHT22;32991;51.374;11.586;2022-11-20T03:22:49;-5.40;99.90
47252;DHT22;32991;51.374;11.586;2022-11-20T03:25:16;-5.60;99.90
47252;DHT22;32991;51.374;11.586;2022-11-20T03:27:42;-5.70;99.90
47252;DHT22;32991;51.374;11.586;2022-11-20T03:30:09;-5.70;99.90
47252;DHT22;32991;51.374;11.586;2022-11-20T03:32:36;-5.80;99.90
47252;DHT22;32991;51.374;11.586;2022-11-20T03:35:03;-5.90;99.90
47252;DHT22;32991;51.374;11.586;2022-11-20T03:37:29;-6.00;99.90
47252;DHT22;32991;51.374;11.586;2022-11-20T03:39:56;-6.10;99.90
47252;DHT22;32991;51.374;11.586;2022-11-20T03:42:23;-6.10;99.90
47252;DHT22;32991;51.374;11.586;2022-11-20T03:45:08;-6.20;99.90
47252;DHT22;32991;51.374;11.586;2022-11-20T03:47:35;-6.20;99.90
47252;DHT22;32991;51.374;11.586;2022-11-20T03:50:02;-6.20;99.90
47252;DHT22;32991;51.374;11.586;2022-11-20T03:52:29;-6.30;99.90
47252;DHT22;32991;51.374;11.586;2022-11-20T03:54:56;-6.30;99.90
47252;DHT22;32991;51.374;11.586;2022-11-20T03:57:22;-6.30;99.90
47252;DHT22;32991;51.374;11.586;2022-11-20T03:59:49;-6.40;99.90
47252;DHT22;32991;51.374;11.586;2022-11-20T04:02:16;-6.40;99.90
47252;DHT22;32991;51.374;11.586;2022-11-20T04:04:43;-6.40;99.90
47252;DHT22;32991;51.374;11.586;2022-11-20T04:07:09;-6.40;99.90
47252;DHT22;32991;51.374;11.586;2022-11-20T04:09:36;-6.50;99.90
47252;DHT22;32991;51.374;11.586;2022-11-20T04:12:03;-6.60;99.90
47252;DHT22;32991;51.374;11.586;2022-11-20T04:14:30;-6.60;99.90
47252;DHT22;32991;51.374;11.586;2022-11-20T04:16:56;-6.60;99.90
47252;DHT22;32991;51.374;11.586;2022-11-20T04:19:23;-6.60;99.90
47252;DHT22;32991;51.374;11.586;2022-11-20T04:21:50;-6.60;99.90
47252;DHT22;32991;51.374;11.586;2022-11-20T04:24:16;-6.60;99.90
47252;DHT22;32991;51.374;11.586;2022-11-20T04:26:43;-6.60;99.90
47252;DHT22;32991;51.374;11.586;2022-11-20T04:29:10;-6.70;99.90
47252;DHT22;32991;51.374;11.586;2022-11-20T04:31:37;-6.70;99.90
47252;DHT22;32991;51.374;11.586;2022-11-20T04:34:05;-6.70;99.90
47252;DHT22;32991;51.374;11.586;2022-11-20T04:36:32;-6.70;99.90
47252;DHT22;32991;51.374;11.586;2022-11-20T04:39:00;-6.70;99.90
47252;DHT22;32991;51.374;11.586;2022-11-20T04:41:32;-6.80;99.90
47252;DHT22;32991;51.374;11.586;2022-11-20T04:43:59;-6.80;99.90
47252;DHT22;32991;51.374;11.586;2022-11-20T04:46:29;-6.80;99.90
47252;DHT22;32991;51.374;11.586;2022-11-20T04:48:56;-6.80;99.90
47252;DHT22;32991;51.374;11.586;2022-11-20T04:51:23;-6.80;99.90
47252;DHT22;32991;51.374;11.586;2022-11-20T04:53:50;-6.80;99.90
47252;DHT22;32991;51.374;11.586;2022-11-20T04:56:16;-6.80;99.90
47252;DHT22;32991;51.374;11.586;2022-11-20T04:58:43;-6.80;99.90
47252;DHT22;32991;51.374;11.586;2022-11-20T05:01:14;-6.80;99.90
47252;DHT22;32991;51.374;11.586;2022-11-20T05:03:41;-6.80;99.90
47252;DHT22;32991;51.374;11.586;2022-11-20T05:06:09;-6.80;99.90
47252;DHT22;32991;51.374;11.586;2022-11-20T05:08:36;-6.80;99.90
47252;DHT22;32991;51.374;11.586;2022-11-20T05:11:04;-6.80;99.90
47252;DHT22;32991;51.374;11.586;2022-11-20T05:13:31;-6.90;99.90
47252;DHT22;32991;51.374;11.586;2022-11-20T05:16:08;-6.90;99.90
47252;DHT22;32991;51.374;11.586;2022-11-20T05:18:35;-6.90;99.90
47252;DHT22;32991;51.374;11.586;2022-11-20T05:21:02;-6.90;99.90
47252;DHT22;32991;51.374;11.586;2022-11-20T05:23:30;-6.90;99.90
47252;DHT22;32991;51.374;11.586;2022-11-20T05:25:57;-6.90;99.90
47252;DHT22;32991;51.374;11.586;2022-11-20T05:28:25;-6.90;99.90
47252;DHT22;32991;51.374;11.586;2022-11-20T05:30:52;-6.90;99.90
47252;DHT22;32991;51.374;11.586;2022-11-20T05:33:19;-6.90;99.90
47252;DHT22;32991;51.374;11.586;2022-11-20T05:35:45;-6.90;99.90
47252;DHT22;32991;51.374;11.586;2022-11-20T05:38:12;-6.90;99.90
47252;DHT22;32991;51.374;11.586;2022-11-20T05:40:39;-6.80;99.90
47252;DHT22;32991;51.374;11.586;2022-11-20T05:43:05;-6.80;99.90
47252;DHT22;32991;51.374;11.586;2022-11-20T05:45:32;-6.80;99.90
47252;DHT22;32991;51.374;11.586;2022-11-20T05:47:59;-6.70;99.90
47252;DHT22;32991;51.374;11.586;2022-11-20T05:50:28;-6.70;99.90
47252;DHT22;32991;51.374;11.586;2022-11-20T05:52:57;-6.70;99.90
47252;DHT22;32991;51.374;11.586;2022-11-20T05:55:24;-6.70;99.90
47252;DHT22;32991;51.374;11.586;2022-11-20T05:57:52;-6.70;99.90
47252;DHT22;32991;51.374;11.586;2022-11-20T06:00:18;-6.70;99.90
47252;DHT22;32991;51.374;11.586;2022-11-20T06:02:45;-6.70;99.90
47252;DHT22;32991;51.374;11.586;2022-11-20T06:05:12;-6.60;99.90
47252;DHT22;32991;51.374;11.586;2022-11-20T06:07:39;-6.60;99.90
47252;DHT22;32991;51.374;11.586;2022-11-20T06:10:05;-6.60;99.90
47252;DHT22;32991;51.374;11.586;2022-11-20T06:12:32;-6.70;99.90
47252;DHT22;32991;51.374;11.586;2022-11-20T06:14:59;-6.70;99.90
47252;DHT22;32991;51.374;11.586;2022-11-20T06:17:26;-6.80;99.90
47252;DHT22;32991;51.374;11.586;2022-11-20T06:19:53;-6.90;99.90
47252;DHT22;32991;51.374;11.586;2022-11-20T06:22:19;-6.90;99.90
47252;DHT22;32991;51.374;11.586;2022-11-20T06:24:46;-7.00;99.90
47252;DHT22;32991;51.374;11.586;2022-11-20T06:27:13;-7.00;99.90
47252;DHT22;32991;51.374;11.586;2022-11-20T06:29:40;-7.10;99.90
47252;DHT22;32991;51.374;11.586;2022-11-20T06:32:07;-7.10;99.90
47252;DHT22;32991;51.374;11.586;2022-11-20T06:34:34;-7.10;99.90
47252;DHT22;32991;51.374;11.586;2022-11-20T06:37:01;-7.10;99.90
47252;DHT22;32991;51.374;11.586;2022-11-20T06:39:27;-7.00;99.90
47252;DHT22;32991;51.374;11.586;2022-11-20T06:41:54;-6.90;99.90
47252;DHT22;32991;51.374;11.586;2022-11-20T06:44:25;-6.80;99.90
47252;DHT22;32991;51.374;11.586;2022-11-20T06:46:51;-6.80;99.90
47252;DHT22;32991;51.374;11.586;2022-11-20T06:49:18;-6.70;99.90
47252;DHT22;32991;51.374;11.586;2022-11-20T06:51:45;-6.60;99.90
47252;DHT22;32991;51.374;11.586;2022-11-20T06:54:12;-6.50;99.90
47252;DHT22;32991;51.374;11.586;2022-11-20T06:56:38;-6.50;99.90
47252;DHT22;32991;51.374;11.586;2022-11-20T06:59:05;-6.40;99.90
47252;DHT22;32991;51.374;11.586;2022-11-20T07:01:32;-6.40;99.90
47252;DHT22;32991;51.374;11.586;2022-11-20T07:03:59;-6.30;99.90
47252;DHT22;32991;51.374;11.586;2022-11-20T07:06:26;-6.20;99.90
47252;DHT22;32991;51.374;11.586;2022-11-20T07:08:53;-6.10;99.90
47252;DHT22;32991;51.374;11.586;2022-11-20T07:11:20;-6.00;99.90
47252;DHT22;32991;51.374;11.586;2022-11-20T07:13:46;-5.90;99.90
47252;DHT22;32991;51.374;11.586;2022-11-20T07:16:13;-5.80;99.90
47252;DHT22;32991;51.374;11.586;2022-11-20T07:18:40;-5.60;99.90
47252;DHT22;32991;51.374;11.586;2022-11-20T07:21:12;-5.20;99.90
47252;DHT22;32991;51.374;11.586;2022-11-20T07:23:39;-4.60;99.90
47252;DHT22;32991;51.374;11.586;2022-11-20T07:26:07;-3.90;99.90
47252;DHT22;32991;51.374;11.586;2022-11-20T07:28:34;-3.50;99.90
47252;DHT22;32991;51.374;11.586;2022-11-20T07:31:01;-3.50;99.90
47252;DHT22;32991;51.374;11.586;2022-11-20T07:33:28;-3.70;99.90
47252;DHT22;32991;51.374;11.586;2022-11-20T07:35:54;-3.90;99.90
47252;DHT22;32991;51.374;11.586;2022-11-20T07:38:21;-4.10;99.90
47252;DHT22;32991;51.374;11.586;2022-11-20T07:40:48;-4.20;99.90
47252;DHT22;32991;51.374;11.586;2022-11-20T07:43:15;-4.30;99.90
47252;DHT22;32991;51.374;11.586;2022-11-20T07:45:42;-4.40;99.90
47252;DHT22;32991;51.374;11.586;2022-11-20T07:48:08;-4.50;99.90
47252;DHT22;32991;51.374;11.586;2022-11-20T07:50:35;-4.50;99.90
47252;DHT22;32991;51.374;11.586;2022-11-20T07:53:03;-4.50;99.90
47252;DHT22;32991;51.374;11.586;2022-11-20T07:55:30;-4.50;99.90
47252;DHT22;32991;51.374;11.586;2022-11-20T07:57:57;-4.50;99.90
47252;DHT22;32991;51.374;11.586;2022-11-20T08:00:25;-4.40;99.90
47252;DHT22;32991;51.374;11.586;2022-11-20T08:02:52;-4.30;99.90
47252;DHT22;32991;51.374;11.586;2022-11-20T08:05:19;-4.20;99.90
47252;DHT22;32991;51.374;11.586;2022-11-20T08:07:46;-4.20;99.90
47252;DHT22;32991;51.374;11.586;2022-11-20T08:10:13;-4.10;99.90
47252;DHT22;32991;51.374;11.586;2022-11-20T08:12:44;-4.00;99.90
47252;DHT22;32991;51.374;11.586;2022-11-20T08:15:33;-3.90;99.90
47252;DHT22;32991;51.374;11.586;2022-11-20T08:18:01;-3.70;99.90
47252;DHT22;32991;51.374;11.586;2022-11-20T08:20:48;-3.60;99.90
47252;DHT22;32991;51.374;11.586;2022-11-20T08:23:15;-3.50;99.90
47252;DHT22;32991;51.374;11.586;2022-11-20T08:25:41;-3.40;99.90
47252;DHT22;32991;51.374;11.586;2022-11-20T08:28:09;-3.30;99.90
47252;DHT22;32991;51.374;11.586;2022-11-20T08:30:46;-3.30;99.90
47252;DHT22;32991;51.374;11.586;2022-11-20T08:33:13;-3.20;99.90
47252;DHT22;32991;51.374;11.586;2022-11-20T08:35:40;-3.00;99.90
47252;DHT22;32991;51.374;11.586;2022-11-20T08:38:08;-2.80;99.90
47252;DHT22;32991;51.374;11.586;2022-11-20T08:40:35;-2.80;99.90
47252;DHT22;32991;51.374;11.586;2022-11-20T08:43:02;-2.60;99.90
47252;DHT22;32991;51.374;11.586;2022-11-20T08:45:28;-2.60;99.90
47252;DHT22;32991;51.374;11.586;2022-11-20T08:48:03;-2.50;99.90
47252;DHT22;32991;51.374;11.586;2022-11-20T08:50:30;-2.20;99.90
47252;DHT22;32991;51.374;11.586;2022-11-20T08:53:03;-2.10;99.90
47252;DHT22;32991;51.374;11.586;2022-11-20T08:55:31;-2.10;99.90
47252;DHT22;32991;51.374;11.586;2022-11-20T08:58:02;-1.90;99.90
47252;DHT22;32991;51.374;11.586;2022-11-20T09:00:30;-1.80;99.90
47252;DHT22;32991;51.374;11.586;2022-11-20T09:02:57;-1.70;99.90
47252;DHT22;32991;51.374;11.586;2022-11-20T09:05:25;-1.70;99.90
47252;DHT22;32991;51.374;11.586;2022-11-20T09:07:56;-1.70;99.90
47252;DHT22;32991;51.374;11.586;2022-11-20T09:10:25;-1.10;99.90
47252;DHT22;32991;51.374;11.586;2022-11-20T09:12:53;-0.50;99.90
47252;DHT22;32991;51.374;11.586;2022-11-20T09:15:22;-0.20;99.90
47252;DHT22;32991;51.374;11.586;2022-11-20T09:17:57;0.60;99.90
47252;DHT22;32991;51.374;11.586;2022-11-20T09:20:25;0.90;99.90
47252;DHT22;32991;51.374;11.586;2022-11-20T09:22:52;0.60;99.90
47252;DHT22;32991;51.374;11.586;2022-11-20T09:25:18;0.70;99.90
47252;DHT22;32991;51.374;11.586;2022-11-20T09:27:45;1.60;99.90
47252;DHT22;32991;51.374;11.586;2022-11-20T09:30:13;2.60;99.90
47252;DHT22;32991;51.374;11.586;2022-11-20T09:32:40;3.30;99.90
47252;DHT22;32991;51.374;11.586;2022-11-20T09:35:07;4.00;99.90
47252;DHT22;32991;51.374;11.586;2022-11-20T09:37:34;4.80;99.90
47252;DHT22;32991;51.374;11.586;2022-11-20T09:40:01;5.10;99.90
47252;DHT22;32991;51.374;11.586;2022-11-20T09:42:32;4.70;99.90
47252;DHT22;32991;51.374;11.586;2022-11-20T09:45:05;4.60;99.90
47252;DHT22;32991;51.374;11.586;2022-11-20T09:47:58;5.10;99.90
47252;DHT22;32991;51.374;11.586;2022-11-20T09:50:34;5.70;99.90
47252;DHT22;32991;51.374;11.586;2022-11-20T09:53:13;6.50;99.10
47252;DHT22;32991;51.374;11.586;2022-11-20T09:55:42;6.80;98.40
47252;DHT22;32991;51.374;11.586;2022-11-20T09:58:25;7.10;96.00
47252;DHT22;32991;51.374;11.586;2022-11-20T10:00:56;7.30;94.50
47252;DHT22;32991;51.374;11.586;2022-11-20T10:03:29;7.20;94.40
47252;DHT22;32991;51.374;11.586;2022-11-20T10:06:02;6.50;94.00
47252;DHT22;32991;51.374;11.586;2022-11-20T10:08:36;5.20;95.10
47252;DHT22;32991;51.374;11.586;2022-11-20T10:11:10;3.80;97.50
47252;DHT22;32991;51.374;11.586;2022-11-20T10:13:44;2.40;99.90
47252;DHT22;32991;51.374;11.586;2022-11-20T10:16:29;1.40;99.90
47252;DHT22;32991;51.374;11.586;2022-11-20T10:19:26;0.60;99.90
47252;DHT22;32991;51.374;11.586;2022-11-20T10:21:57;0.10;99.90
47252;DHT22;32991;51.374;11.586;2022-11-20T10:24:34;-0.40;99.90
47252;DHT22;32991;51.374;11.586;2022-11-20T10:29:47;-0.80;99.90
47252;DHT22;32991;51.374;11.586;2022-11-20T10:32:20;-1.00;99.90
47252;DHT22;32991;51.374;11.586;2022-11-20T10:37:23;-1.30;99.90
47252;DHT22;32991;51.374;11.586;2022-11-20T10:39:56;-1.40;99.90
47252;DHT22;32991;51.374;11.586;2022-11-20T10:42:34;-1.50;99.90
47252;DHT22;32991;51.374;11.586;2022-11-20T10:45:15;-1.60;99.90
47252;DHT22;32991;51.374;11.586;2022-11-20T10:47:45;-1.60;99.90
47252;DHT22;32991;51.374;11.586;2022-11-20T10:50:14;-1.60;99.90
47252;DHT22;32991;51.374;11.586;2022-11-20T11:00:21;-1.60;99.90
47252;DHT22;32991;51.374;11.586;2022-11-20T11:02:51;-1.50;99.90
47252;DHT22;32991;51.374;11.586;2022-11-20T11:07:45;-1.50;99.90
47252;DHT22;32991;51.374;11.586;2022-11-20T11:10:16;-1.40;99.90
47252;DHT22;32991;51.374;11.586;2022-11-20T11:12:46;-1.30;99.90
47252;DHT22;32991;51.374;11.586;2022-11-20T11:15:25;-1.20;99.90
47252;DHT22;32991;51.374;11.586;2022-11-20T11:17:52;-1.20;99.90
47252;DHT22;32991;51.374;11.586;2022-11-20T11:20:20;-1.10;99.90
47252;DHT22;32991;51.374;11.586;2022-11-20T11:23:05;-1.00;99.90
47252;DHT22;32991;51.374;11.586;2022-11-20T11:25:32;-1.00;99.90
47252;DHT22;32991;51.374;11.586;2022-11-20T11:30:44;-0.90;99.90
47252;DHT22;32991;51.374;11.586;2022-11-20T11:33:17;-0.90;99.90
47252;DHT22;32991;51.374;11.586;2022-11-20T11:35:45;-0.90;99.90
47252;DHT22;32991;51.374;11.586;2022-11-20T11:38:18;-0.90;99.90
47252;DHT22;32991;51.374;11.586;2022-11-20T11:40:46;-0.90;99.90
47252;DHT22;32991;51.374;11.586;2022-11-20T11:43:17;-0.90;99.90
47252;DHT22;32991;51.374;11.586;2022-11-20T11:46:05;-0.80;99.90
47252;DHT22;32991;51.374;11.586;2022-11-20T11:48:36;-0.80;99.90
47252;DHT22;32991;51.374;11.586;2022-11-20T11:51:07;-0.90;99.90
47252;DHT22;32991;51.374;11.586;2022-11-20T11:53:34;-0.90;99.90
47252;DHT22;32991;51.374;11.586;2022-11-20T11:56:09;-0.90;99.90
47252;DHT22;32991;51.374;11.586;2022-11-20T11:58:44;-0.90;99.90
47252;DHT22;32991;51.374;11.586;2022-11-20T12:03:42;-0.90;99.90
47252;DHT22;32991;51.374;11.586;2022-11-20T12:06:11;-0.80;99.90
47252;DHT22;32991;51.374;11.586;2022-11-20T12:08:49;-0.80;99.90
47252;DHT22;32991;51.374;11.586;2022-11-20T12:16:33;-0.80;99.90
47252;DHT22;32991;51.374;11.586;2022-11-20T12:19:01;-0.80;99.90
47252;DHT22;32991;51.374;11.586;2022-11-20T12:21:30;-0.80;99.90
47252;DHT22;32991;51.374;11.586;2022-11-20T12:26:44;-0.70;99.90
47252;DHT22;32991;51.374;11.586;2022-11-20T12:32:09;-0.70;99.90
47252;DHT22;32991;51.374;11.586;2022-11-20T12:39:35;-0.60;99.90
47252;DHT22;32991;51.374;11.586;2022-11-20T13:01:17;-0.40;99.90
47252;DHT22;32991;51.374;11.586;2022-11-20T13:04:07;-0.40;99.90
47252;DHT22;32991;51.374;11.586;2022-11-20T13:06:36;-0.40;99.90
47252;DHT22;32991;51.374;11.586;2022-11-20T13:09:04;-0.40;99.90
47252;DHT22;32991;51.374;11.586;2022-11-20T13:11:41;-0.40;99.90
47252;DHT22;32991;51.374;11.586;2022-11-20T13:16:43;-0.40;99.90
47252;DHT22;32991;51.374;11.586;2022-11-20T13:19:12;-0.40;99.90
47252;DHT22;32991;51.374;11.586;2022-11-20T13:21:46;-0.30;99.90
47252;DHT22;32991;51.374;11.586;2022-11-20T13:26:45;-0.30;99.90
47252;DHT22;32991;51.374;11.586;2022-11-20T13:29:19;-0.30;99.90
47252;DHT22;32991;51.374;11.586;2022-11-20T13:31:46;-0.30;99.90
47252;DHT22;32991;51.374;11.586;2022-11-20T13:34:24;-0.30;99.90
47252;DHT22;32991;51.374;11.586;2022-11-20T13:36:53;-0.30;99.90
47252;DHT22;32991;51.374;11.586;2022-11-20T13:39:27;-0.30;99.90
47252;DHT22;32991;51.374;11.586;2022-11-20T13:41:55;-0.30;99.90
47252;DHT22;32991;51.374;11.586;2022-11-20T13:44:38;-0.30;99.90
47252;DHT22;32991;51.374;11.586;2022-11-20T13:47:22;-0.30;99.90
47252;DHT22;32991;51.374;11.586;2022-11-20T13:49:49;-0.30;99.90
47252;DHT22;32991;51.374;11.586;2022-11-20T13:57:48;-0.30;99.90
47252;DHT22;32991;51.374;11.586;2022-11-20T14:00:18;-0.30;99.90
47252;DHT22;32991;51.374;11.586;2022-11-20T14:02:49;-0.30;99.90
47252;DHT22;32991;51.374;11.586;2022-11-20T14:05:20;-0.30;99.90
47252;DHT22;32991;51.374;11.586;2022-11-20T14:07:48;-0.40;99.90
47252;DHT22;32991;51.374;11.586;2022-11-20T14:10:23;-0.40;99.90
47252;DHT22;32991;51.374;11.586;2022-11-20T14:12:57;-0.40;99.90
47252;DHT22;32991;51.374;11.586;2022-11-20T14:15:33;-0.40;99.90
47252;DHT22;32991;51.374;11.586;2022-11-20T14:18:10;-0.50;99.90
47252;DHT22;32991;51.374;11.586;2022-11-20T14:20:38;-0.50;99.90
47252;DHT22;32991;51.374;11.586;2022-11-20T14:23:07;-0.50;99.90
47252;DHT22;32991;51.374;11.586;2022-11-20T14:25:35;-0.50;99.90
47252;DHT22;32991;51.374;11.586;2022-11-20T14:28:03;-0.50;99.90
47252;DHT22;32991;51.374;11.586;2022-11-20T14:30:43;-0.60;99.90
47252;DHT22;32991;51.374;11.586;2022-11-20T14:33:11;-0.60;99.90
47252;DHT22;32991;51.374;11.586;2022-11-20T14:35:46;-0.70;99.90
47252;DHT22;32991;51.374;11.586;2022-11-20T14:38:13;-0.70;99.90
47252;DHT22;32991;51.374;11.586;2022-11-20T14:40:41;-0.80;99.90
47252;DHT22;32991;51.374;11.586;2022-11-20T14:43:22;-0.80;99.90
47252;DHT22;32991;51.374;11.586;2022-11-20T14:45:56;-0.90;99.90
47252;DHT22;32991;51.374;11.586;2022-11-20T14:48:27;-1.00;99.90
47252;DHT22;32991;51.374;11.586;2022-11-20T14:50:55;-1.00;99.90
47252;DHT22;32991;51.374;11.586;2022-11-20T14:53:22;-1.00;99.90
47252;DHT22;32991;51.374;11.586;2022-11-20T14:55:54;-1.10;99.90
47252;DHT22;32991;51.374;11.586;2022-11-20T14:58:29;-1.20;99.90
47252;DHT22;32991;51.374;11.586;2022-11-20T15:00:57;-1.20;99.90
47252;DHT22;32991;51.374;11.586;2022-11-20T15:03:34;-1.30;99.90
47252;DHT22;32991;51.374;11.586;2022-11-20T15:06:02;-1.30;99.90
47252;DHT22;32991;51.374;11.586;2022-11-20T15:08:29;-1.40;99.90
47252;DHT22;32991;51.374;11.586;2022-11-20T15:10:56;-1.40;99.90
47252;DHT22;32991;51.374;11.586;2022-11-20T15:13:30;-1.50;99.90
47252;DHT22;32991;51.374;11.586;2022-11-20T15:15:58;-1.50;99.90
47252;DHT22;32991;51.374;11.586;2022-11-20T15:18:32;-1.60;99.90
47252;DHT22;32991;51.374;11.586;2022-11-20T15:21:03;-1.60;99.90
47252;DHT22;32991;51.374;11.586;2022-11-20T15:23:30;-1.60;99.90
47252;DHT22;32991;51.374;11.586;2022-11-20T15:25:57;-1.70;99.90
47252;DHT22;32991;51.374;11.586;2022-11-20T15:28:29;-1.70;99.90
47252;DHT22;32991;51.374;11.586;2022-11-20T15:30:56;-1.80;99.90
47252;DHT22;32991;51.374;11.586;2022-11-20T15:33:23;-1.90;99.90
47252;DHT22;32991;51.374;11.586;2022-11-20T15:35:50;-1.90;99.90
47252;DHT22;32991;51.374;11.586;2022-11-20T15:38:17;-1.90;99.90
47252;DHT22;32991;51.374;11.586;2022-11-20T15:40:43;-1.90;99.90
47252;DHT22;32991;51.374;11.586;2022-11-20T15:43:10;-1.90;99.90
47252;DHT22;32991;51.374;11.586;2022-11-20T15:48:14;-2.00;99.90
47252;DHT22;32991;51.374;11.586;2022-11-20T15:50:52;-2.00;99.90
47252;DHT22;32991;51.374;11.586;2022-11-20T15:53:20;-2.10;99.90
47252;DHT22;32991;51.374;11.586;2022-11-20T15:55:47;-2.10;99.90
47252;DHT22;32991;51.374;11.586;2022-11-20T15:58:14;-2.10;99.90
47252;DHT22;32991;51.374;11.586;2022-11-20T16:00:43;-2.20;99.90
47252;DHT22;32991;51.374;11.586;2022-11-20T16:03:11;-2.30;99.90
47252;DHT22;32991;51.374;11.586;2022-11-20T16:05:38;-2.30;99.90
47252;DHT22;32991;51.374;11.586;2022-11-20T16:08:04;-2.40;99.90
47252;DHT22;32991;51.374;11.586;2022-11-20T16:10:37;-2.50;99.90
47252;DHT22;32991;51.374;11.586;2022-11-20T16:13:04;-2.50;99.90
47252;DHT22;32991;51.374;11.586;2022-11-20T16:15:55;-2.60;99.90
47252;DHT22;32991;51.374;11.586;2022-11-20T16:18:23;-2.60;99.90
47252;DHT22;32991;51.374;11.586;2022-11-20T16:20:50;-2.60;99.90
47252;DHT22;32991;51.374;11.586;2022-11-20T16:23:18;-2.60;99.90
47252;DHT22;32991;51.374;11.586;2022-11-20T16:25:44;-2.60;99.90
47252;DHT22;32991;51.374;11.586;2022-11-20T16:28:11;-2.60;99.90
47252;DHT22;32991;51.374;11.586;2022-11-20T16:30:44;-2.60;99.90
47252;DHT22;32991;51.374;11.586;2022-11-20T16:33:12;-2.50;99.90
47252;DHT22;32991;51.374;11.586;2022-11-20T16:35:39;-2.50;99.90
47252;DHT22;32991;51.374;11.586;2022-11-20T16:38:06;-2.50;99.90
47252;DHT22;32991;51.374;11.586;2022-11-20T16:40:33;-2.40;99.90
47252;DHT22;32991;51.374;11.586;2022-11-20T16:43:08;-2.40;99.90